Galloway, NJ

1:04 PM EST on February 10, 2016 (GMT -0500)
Coventry Village - Smithville - NJ | | Change Station
CLOSE
Current Station
Personal Weather Station
Location: Galloway, NJ
Elevation: 69 ft
Nearby Weather Stations

Elev 69 ft 39.48 °N, 74.48 °W | Updated 7 minutes ago

Mostly Cloudy
Mostly Cloudy
36.1 °F
Feels Like 33 °F
N
3.7
Wind Variable Wind from SSW

Today
High -- | Low -- °F
--% Chance of Precip.
Yesterday
High -- | Low -- °F
Precip. -- in
Pressure 29.70 in
Visibility 10.0 miles
Clouds Overcast 3400 ft
Windchill 33 °F
Dew Point 27 °F
Humidity 68%
Rainfall 0.05 in
Snow Depth Not available.
6:56 AM 5:28 PM
Waxing Crescent, 6% visible
METAR KACY 101754Z 27015G22KT 10SM OVC034 02/M05 A2969 RMK AO2 SLP055 60001 T00221050 10022 21011 58005
Pressure 29.70 in
Visibility 10.0 miles
Clouds Overcast 3400 ft
Windchill 33 °F
Dew Point 27 °F
Humidity 68%
Rainfall 0.05 in
Snow Depth Not available.
6:56 AM 5:28 PM
Waxing Crescent, 6% visible
METAR KACY 101754Z 27015G22KT 10SM OVC034 02/M05 A2969 RMK AO2 SLP055 60001 T00221050 10022 21011 58005

10-Day Weather Forecast

Almanac

Astronomy

Feb. 10, 2016 Rise Set
Actual Time
Civil Twilight
Nautical Twilight
Astronomical Twilight
Moon
Length of Visible Light
Length of Day
Tomorrow will be .
, % of the Moon is Illuminated

Today's Extremes

State Highs State Lows

Community

WunderPhotos

Upload Photos

1,891,904 photos uploaded!

WunderBlog® & News

Nearby

Air Quality

  Air Quality AQ Index Pollutant
Not available.

Snow Depth

Station Depth Elevation

Earthquake Activity

City Distance Mag. Time & Date
Minimum magnitude displayed is 2.5.

Coastal Water Temperatures

Place Temperature

Stations

Nearby Weather Stations

Station Location Temp. Windchill Dew Point Humidity Wind Precip. Elev Updated Type
                   

Watches & Warnings

There are currently no watches in effect.